createdAt,value
2022-10-31T00:00:44.123Z,29.63
2022-10-31T00:01:47.112Z,23.95
2022-10-31T00:02:51.134Z,23.85
2022-10-31T00:03:54.437Z,21.50
2022-10-31T00:04:58.631Z,21.38
2022-10-31T00:06:02.955Z,23.98
2022-10-31T00:07:06.816Z,19.23
2022-10-31T00:08:09.662Z,18.55
2022-10-31T00:09:14.215Z,21.05
2022-10-31T00:10:17.173Z,20.98
2022-10-31T00:11:22.434Z,22.92
2022-10-31T00:12:25.164Z,23.23
2022-10-31T00:13:29.684Z,29.45
2022-10-31T00:14:32.473Z,37.38
2022-10-31T00:15:36.983Z,38.47
2022-10-31T00:16:41.923Z,34.38
2022-10-31T00:17:46.036Z,29.15
2022-10-31T00:18:50.293Z,26.10
2022-10-31T00:19:54.551Z,24.17
2022-10-31T00:21:01.554Z,19.63
2022-10-31T00:22:05.676Z,21.23
2022-10-31T00:23:08.951Z,22.85
2022-10-31T00:24:13.560Z,19.05
2022-10-31T00:25:16.596Z,24.98
2022-10-31T00:26:22.291Z,19.20
2022-10-31T00:27:25.165Z,26.65
2022-10-31T00:28:33.338Z,18.48
2022-10-31T00:29:36.254Z,22.23
2022-10-31T00:30:40.384Z,21.92
2022-10-31T00:31:43.417Z,23.63
2022-10-31T00:32:47.583Z,20.33
2022-10-31T00:33:50.635Z,22.88
2022-10-31T00:34:55.914Z,18.88
2022-10-31T00:35:59.484Z,19.00
2022-10-31T00:37:03.561Z,21.92
2022-10-31T00:38:06.450Z,20.25
2022-10-31T00:39:10.565Z,18.45
2022-10-31T00:40:13.714Z,18.35
2022-10-31T00:41:18.931Z,19.92
2022-10-31T00:42:23.253Z,19.90
2022-10-31T00:43:27.151Z,23.90
2022-10-31T00:44:29.970Z,19.45
2022-10-31T00:45:33.813Z,18.70
2022-10-31T00:46:36.615Z,15.60
2022-10-31T00:47:40.575Z,15.93
2022-10-31T00:48:43.823Z,17.80
2022-10-31T00:49:47.724Z,16.88
2022-10-31T00:50:50.533Z,17.88
2022-10-31T00:51:54.347Z,14.90
2022-10-31T00:52:58.173Z,14.82
2022-10-31T00:54:02.175Z,13.55
2022-10-31T00:55:05.732Z,15.63
2022-10-31T00:56:09.882Z,18.73
2022-10-31T00:57:13.134Z,18.85
2022-10-31T00:58:19.161Z,19.27
2022-10-31T00:59:21.922Z,15.77
2022-10-31T01:00:25.901Z,13.45
2022-10-31T01:01:29.330Z,14.32
2022-10-31T01:02:34.092Z,11.57
2022-10-31T01:03:37.164Z,12.45
2022-10-31T01:04:41.063Z,12.63
2022-10-31T01:05:43.935Z,12.30
2022-10-31T01:06:48.347Z,15.10
2022-10-31T01:07:52.684Z,11.20
2022-10-31T01:08:56.524Z,16.75
2022-10-31T01:09:59.771Z,17.70
2022-10-31T01:11:07.503Z,14.93
2022-10-31T01:12:10.354Z,13.18
2022-10-31T01:13:16.788Z,14.98
2022-10-31T01:14:23.343Z,16.52
2022-10-31T01:15:27.766Z,15.95
2022-10-31T01:16:31.007Z,16.23
2022-10-31T01:17:35.247Z,14.15
2022-10-31T01:18:38.775Z,15.93
2022-10-31T01:19:42.643Z,15.52
2022-10-31T01:20:45.683Z,15.65
2022-10-31T01:21:49.763Z,17.67
2022-10-31T01:22:52.572Z,15.43
2022-10-31T01:23:57.573Z,14.43
2022-10-31T01:25:01.113Z,14.50
2022-10-31T01:26:08.749Z,14.48
2022-10-31T01:27:11.482Z,14.15
2022-10-31T01:28:15.833Z,13.05
2022-10-31T01:29:18.709Z,12.68
2022-10-31T01:30:23.966Z,12.55
2022-10-31T01:31:28.919Z,13.30
2022-10-31T01:32:33.573Z,12.90
2022-10-31T01:33:36.783Z,13.07
2022-10-31T01:34:40.613Z,11.77
2022-10-31T01:35:43.685Z,12.32
2022-10-31T01:36:52.562Z,13.65
2022-10-31T01:37:55.450Z,14.18
2022-10-31T01:39:00.804Z,16.08
2022-10-31T01:40:03.889Z,13.38
2022-10-31T01:41:07.852Z,13.35
2022-10-31T01:42:12.959Z,14.52
2022-10-31T01:43:16.131Z,11.98
2022-10-31T01:44:53.388Z,11.70
2022-10-31T01:46:01.040Z,13.20
2022-10-31T01:47:07.723Z,12.27
2022-10-31T01:48:16.133Z,12.32
2022-10-31T01:49:23.442Z,15.35
2022-10-31T01:50:32.422Z,14.40
2022-10-31T01:51:37.781Z,12.82
2022-10-31T01:52:43.825Z,12.95
2022-10-31T01:53:47.479Z,20.42
2022-10-31T01:54:53.711Z,23.30
2022-10-31T01:55:57.860Z,23.67
2022-10-31T01:57:01.167Z,16.77
2022-10-31T01:58:08.269Z,18.77
2022-10-31T01:59:13.460Z,17.05
2022-10-31T02:00:18.671Z,14.68
2022-10-31T02:01:23.074Z,16.90
2022-10-31T02:02:28.209Z,18.17
2022-10-31T02:03:32.660Z,19.40
2022-10-31T02:04:36.560Z,19.80
2022-10-31T02:06:01.922Z,16.35
2022-10-31T02:07:07.799Z,16.58
2022-10-31T02:08:16.158Z,16.38
2022-10-31T02:09:22.132Z,16.85
2022-10-31T02:10:26.291Z,14.82
2022-10-31T02:11:29.975Z,12.77
2022-10-31T02:12:35.990Z,12.48
2022-10-31T02:13:40.319Z,11.93
2022-10-31T02:14:44.491Z,12.48
2022-10-31T02:15:50.720Z,13.82
2022-10-31T02:16:55.928Z,14.13
2022-10-31T02:18:00.062Z,17.15
2022-10-31T02:19:04.161Z,16.27
2022-10-31T02:20:15.801Z,16.88
2022-10-31T02:21:21.021Z,21.30
2022-10-31T02:22:29.680Z,25.08
2022-10-31T02:24:03.460Z,25.75
2022-10-31T02:25:34.392Z,29.27
2022-10-31T02:26:57.388Z,31.52
2022-10-31T02:28:27.570Z,33.30
2022-10-31T02:29:54.961Z,17.25
2022-10-31T02:31:21.361Z,16.88
2022-10-31T02:32:28.968Z,15.95
2022-10-31T02:33:39.000Z,23.25
2022-10-31T02:34:53.299Z,17.35
2022-10-31T02:36:05.590Z,18.48
2022-10-31T02:37:13.639Z,18.70
2022-10-31T02:38:25.758Z,22.13
2022-10-31T02:39:32.779Z,18.98
2022-10-31T02:40:39.718Z,18.65
2022-10-31T02:42:10.518Z,17.45
2022-10-31T02:43:17.515Z,17.40
2022-10-31T02:44:25.410Z,16.17
2022-10-31T02:45:31.796Z,16.10
2022-10-31T02:46:41.111Z,15.68
2022-10-31T02:47:46.790Z,18.70
2022-10-31T02:48:51.217Z,19.42
2022-10-31T02:49:57.879Z,18.13
2022-10-31T02:51:03.900Z,20.70
2022-10-31T02:52:16.072Z,17.77
2022-10-31T02:53:19.990Z,16.83
2022-10-31T02:54:24.700Z,16.55
2022-10-31T02:55:49.400Z,16.33
2022-10-31T02:56:56.239Z,13.93
2022-10-31T02:58:02.773Z,15.43
2022-10-31T02:59:07.556Z,17.13
2022-10-31T03:00:12.251Z,15.63
2022-10-31T03:01:28.875Z,15.82
2022-10-31T03:02:57.743Z,17.10
2022-10-31T03:04:28.628Z,18.50
2022-10-31T03:05:46.300Z,15.35
2022-10-31T03:06:55.920Z,17.42
2022-10-31T03:08:03.940Z,18.13
2022-10-31T03:09:13.010Z,21.70
2022-10-31T03:10:22.308Z,22.42
2022-10-31T03:11:30.669Z,17.73
2022-10-31T03:12:44.465Z,16.15
2022-10-31T03:13:53.430Z,13.60
2022-10-31T03:15:09.018Z,14.60
2022-10-31T03:16:16.461Z,16.88
2022-10-31T03:17:25.520Z,17.50
2022-10-31T03:18:32.605Z,14.15
2022-10-31T03:19:40.451Z,13.73
2022-10-31T03:20:47.531Z,15.45
2022-10-31T03:21:52.980Z,15.32
2022-10-31T03:23:00.077Z,14.82
2022-10-31T03:24:03.268Z,17.48
2022-10-31T03:25:08.078Z,16.42
2022-10-31T03:26:12.669Z,19.30
2022-10-31T03:27:18.960Z,19.90
2022-10-31T03:28:26.354Z,15.98
2022-10-31T03:29:33.490Z,15.43
2022-10-31T03:30:38.700Z,14.13
2022-10-31T03:31:54.530Z,13.90
2022-10-31T03:32:59.702Z,12.73
2022-10-31T03:34:09.058Z,13.13
2022-10-31T03:35:13.244Z,16.77
2022-10-31T03:36:18.700Z,15.30
2022-10-31T03:37:22.623Z,13.05
2022-10-31T03:38:26.498Z,16.17
2022-10-31T03:39:30.400Z,17.00
2022-10-31T03:40:36.285Z,14.55
2022-10-31T03:41:42.647Z,14.90
2022-10-31T03:42:51.321Z,15.48
2022-10-31T03:44:02.502Z,13.07
2022-10-31T03:45:09.312Z,13.82
2022-10-31T03:46:12.100Z,15.80
2022-10-31T03:47:16.013Z,14.60
2022-10-31T03:48:20.362Z,11.88
2022-10-31T03:49:25.621Z,13.88
2022-10-31T03:50:33.409Z,14.25
2022-10-31T03:51:44.411Z,13.57
2022-10-31T03:52:50.988Z,11.85
2022-10-31T03:53:57.779Z,11.40
2022-10-31T03:55:04.170Z,13.73
2022-10-31T03:56:12.480Z,14.55
2022-10-31T03:57:19.751Z,13.68
2022-10-31T03:58:26.834Z,13.85
2022-10-31T03:59:34.140Z,19.98
2022-10-31T04:00:42.540Z,14.50
2022-10-31T04:01:49.436Z,17.08
2022-10-31T04:02:58.683Z,17.23
2022-10-31T04:04:04.031Z,15.30
2022-10-31T04:05:10.828Z,13.40
2022-10-31T04:06:15.983Z,13.13
2022-10-31T04:07:21.299Z,12.45
2022-10-31T04:08:28.938Z,10.52
2022-10-31T04:09:36.324Z,13.23
2022-10-31T04:10:40.340Z,12.75
2022-10-31T04:11:49.140Z,14.30
2022-10-31T04:13:25.753Z,12.30
2022-10-31T04:14:38.578Z,11.38
2022-10-31T04:15:44.192Z,10.85
2022-10-31T04:16:47.369Z,14.85
2022-10-31T04:17:53.230Z,13.57
2022-10-31T04:18:57.376Z,12.43
2022-10-31T04:20:02.560Z,14.15
2022-10-31T04:21:09.237Z,12.68
2022-10-31T04:22:13.088Z,14.20
2022-10-31T04:23:19.989Z,13.27
2022-10-31T04:24:26.750Z,12.90
2022-10-31T04:25:29.782Z,19.63
2022-10-31T04:26:35.670Z,15.30
2022-10-31T04:27:38.572Z,12.70
2022-10-31T04:28:44.678Z,15.40
2022-10-31T04:29:50.801Z,13.23
2022-10-31T04:30:55.840Z,13.15
2022-10-31T04:31:59.071Z,12.60
2022-10-31T04:33:03.355Z,14.70
2022-10-31T04:34:06.781Z,14.57
2022-10-31T04:35:11.121Z,14.50
2022-10-31T04:36:16.531Z,13.65
2022-10-31T04:37:19.331Z,13.52
2022-10-31T04:38:25.471Z,14.90
2022-10-31T04:39:29.339Z,12.52
2022-10-31T04:40:53.668Z,11.43
2022-10-31T04:42:14.891Z,13.20
2022-10-31T04:44:26.334Z,12.02
2022-10-31T04:45:37.472Z,10.00
2022-10-31T04:46:40.461Z,12.73
2022-10-31T04:47:45.476Z,11.82
2022-10-31T04:48:48.297Z,13.07
2022-10-31T04:49:53.462Z,10.07
2022-10-31T04:51:00.751Z,11.90
2022-10-31T04:52:06.737Z,12.68
2022-10-31T04:53:09.784Z,10.50
2022-10-31T04:54:25.796Z,9.43
2022-10-31T04:55:49.550Z,10.25
2022-10-31T04:56:56.249Z,13.50
2022-10-31T04:58:01.169Z,13.65
2022-10-31T04:59:04.519Z,12.05
2022-10-31T05:00:22.539Z,10.93
2022-10-31T05:01:26.920Z,10.32
2022-10-31T05:02:32.579Z,14.13
2022-10-31T05:03:35.909Z,14.23
2022-10-31T05:04:40.198Z,11.00
2022-10-31T05:05:44.231Z,11.95
2022-10-31T05:06:50.886Z,12.43
2022-10-31T05:07:55.632Z,13.70
2022-10-31T05:09:01.322Z,13.55
2022-10-31T05:10:05.840Z,13.57
2022-10-31T05:11:10.760Z,12.80
2022-10-31T05:12:14.010Z,12.80
2022-10-31T05:13:36.817Z,11.10
2022-10-31T05:14:48.782Z,11.25
2022-10-31T05:16:12.800Z,11.15
2022-10-31T05:17:46.119Z,14.77
2022-10-31T05:19:08.589Z,15.25
2022-10-31T05:20:11.849Z,19.98
2022-10-31T05:21:35.749Z,13.63
2022-10-31T05:22:44.009Z,14.77
2022-10-31T05:23:49.497Z,12.23
2022-10-31T05:24:53.260Z,11.88
2022-10-31T05:25:57.119Z,12.45
2022-10-31T05:26:59.979Z,14.10
2022-10-31T05:28:04.122Z,14.30
2022-10-31T05:29:07.398Z,13.25
2022-10-31T05:30:13.267Z,15.02
2022-10-31T05:31:17.126Z,16.35
2022-10-31T05:32:20.991Z,14.30
2022-10-31T05:33:50.651Z,16.20
2022-10-31T05:35:28.301Z,18.25
2022-10-31T05:36:52.083Z,12.88
2022-10-31T05:37:59.013Z,13.52
2022-10-31T05:39:04.657Z,15.40
2022-10-31T05:40:14.131Z,14.50
2022-10-31T05:41:18.029Z,16.02
2022-10-31T05:42:23.522Z,14.68
2022-10-31T05:43:27.418Z,14.63
2022-10-31T05:44:30.671Z,13.70
2022-10-31T05:45:58.999Z,16.48
2022-10-31T05:47:21.289Z,15.13
2022-10-31T05:48:42.267Z,13.10
2022-10-31T05:50:07.510Z,11.50
2022-10-31T05:51:23.145Z,10.38
2022-10-31T05:52:27.108Z,15.90
2022-10-31T05:53:38.258Z,12.02
2022-10-31T05:54:42.669Z,12.32
2022-10-31T05:55:46.610Z,12.27
2022-10-31T05:56:59.109Z,11.70
2022-10-31T05:58:03.252Z,12.68
2022-10-31T05:59:06.871Z,12.63
2022-10-31T06:00:11.866Z,14.43
2022-10-31T06:01:26.871Z,12.85
2022-10-31T06:02:35.684Z,13.82
2022-10-31T06:03:57.949Z,14.32
2022-10-31T06:05:00.866Z,17.25
2022-10-31T06:06:04.947Z,15.45
2022-10-31T06:07:17.632Z,15.68
2022-10-31T06:08:21.458Z,17.95
2022-10-31T06:09:25.310Z,16.42
2022-10-31T06:10:30.972Z,18.30
2022-10-31T06:11:34.230Z,19.52
2022-10-31T06:12:41.840Z,16.40
2022-10-31T06:14:01.349Z,18.90
2022-10-31T06:15:44.330Z,19.23
2022-10-31T06:16:48.430Z,19.05
2022-10-31T06:18:11.105Z,19.13
2022-10-31T06:19:25.250Z,17.42
2022-10-31T06:20:29.218Z,19.52
2022-10-31T06:21:40.349Z,20.00
2022-10-31T06:22:43.084Z,19.60
2022-10-31T06:23:46.940Z,20.92
2022-10-31T06:25:23.139Z,21.15
2022-10-31T06:26:29.073Z,22.15
2022-10-31T06:27:32.013Z,23.48
2022-10-31T06:28:42.055Z,22.92
2022-10-31T06:30:01.587Z,29.70
2022-10-31T06:31:07.763Z,27.67
2022-10-31T06:32:13.180Z,24.30
2022-10-31T06:33:19.199Z,25.42
2022-10-31T06:34:32.912Z,24.63
2022-10-31T06:35:36.079Z,24.50
2022-10-31T06:36:46.984Z,26.33
2022-10-31T06:37:57.917Z,23.85
2022-10-31T06:39:13.193Z,21.00
2022-10-31T06:40:17.370Z,18.67
2022-10-31T06:41:45.272Z,18.17
2022-10-31T06:42:49.070Z,18.48
2022-10-31T06:43:53.031Z,16.35
2022-10-31T06:45:13.779Z,17.15
2022-10-31T06:46:48.827Z,15.48
2022-10-31T06:48:17.188Z,15.63
2022-10-31T06:49:49.271Z,14.80
2022-10-31T06:51:01.716Z,15.13
2022-10-31T06:52:06.327Z,14.18
2022-10-31T06:54:18.998Z,13.93
2022-10-31T06:55:23.774Z,12.75
2022-10-31T06:56:27.604Z,12.23
2022-10-31T06:57:34.068Z,12.45
2022-10-31T06:58:38.019Z,11.45
2022-10-31T06:59:43.211Z,11.93
2022-10-31T07:01:05.670Z,11.82
2022-10-31T07:02:10.862Z,11.88
2022-10-31T07:03:17.767Z,11.18
2022-10-31T07:04:21.589Z,11.15
2022-10-31T07:05:25.771Z,10.95
2022-10-31T07:06:29.799Z,11.27
2022-10-31T07:07:32.851Z,11.32
2022-10-31T07:08:36.838Z,10.60
2022-10-31T07:09:40.910Z,10.50
2022-10-31T07:10:54.078Z,10.52
2022-10-31T07:11:57.851Z,11.02
2022-10-31T07:13:05.199Z,11.00
2022-10-31T07:14:12.221Z,10.80
2022-10-31T07:15:15.377Z,11.27
2022-10-31T07:16:19.202Z,11.82
2022-10-31T07:17:29.878Z,10.85
2022-10-31T07:18:37.454Z,12.45
2022-10-31T07:19:40.398Z,11.65
2022-10-31T07:20:45.927Z,12.13
2022-10-31T07:21:48.797Z,11.88
2022-10-31T07:22:53.667Z,12.43
2022-10-31T07:23:57.320Z,12.20
2022-10-31T07:25:19.724Z,12.57
2022-10-31T07:26:44.084Z,12.90
2022-10-31T07:27:47.560Z,12.90
2022-10-31T07:28:52.924Z,14.32
2022-10-31T07:29:59.045Z,16.08
2022-10-31T07:31:04.490Z,16.65
2022-10-31T07:32:07.307Z,15.57
2022-10-31T07:33:14.229Z,16.13
2022-10-31T07:34:37.928Z,16.38
2022-10-31T07:36:08.798Z,16.50
2022-10-31T07:37:12.281Z,16.98
2022-10-31T07:38:17.419Z,18.17
2022-10-31T07:39:21.819Z,17.38
2022-10-31T07:40:26.273Z,17.40
2022-10-31T07:41:31.471Z,17.35
2022-10-31T07:42:37.186Z,17.85
2022-10-31T07:43:41.925Z,17.58
2022-10-31T07:45:12.298Z,19.23
2022-10-31T07:46:44.867Z,17.95
2022-10-31T07:48:14.720Z,17.73
2022-10-31T07:49:47.672Z,18.02
2022-10-31T07:51:10.045Z,18.95
2022-10-31T07:52:36.999Z,19.13
2022-10-31T07:54:00.992Z,18.05
2022-10-31T07:55:08.727Z,18.65
2022-10-31T07:56:13.457Z,18.88
2022-10-31T07:57:19.204Z,19.60
2022-10-31T07:58:26.360Z,19.13
2022-10-31T07:59:29.078Z,19.02
2022-10-31T08:00:35.551Z,19.40
2022-10-31T08:01:39.571Z,19.23
2022-10-31T08:03:05.574Z,19.05
2022-10-31T08:04:38.523Z,19.95
2022-10-31T08:06:15.517Z,17.98
2022-10-31T08:07:40.950Z,17.83
2022-10-31T08:08:53.789Z,18.25
2022-10-31T08:09:56.701Z,18.13
2022-10-31T08:11:04.330Z,19.13
2022-10-31T08:12:08.448Z,18.15
2022-10-31T08:13:15.021Z,18.42
2022-10-31T08:14:22.358Z,19.58
2022-10-31T08:15:28.626Z,18.77
2022-10-31T08:16:35.847Z,18.10
2022-10-31T08:17:43.419Z,18.73
2022-10-31T08:18:49.049Z,18.67
2022-10-31T08:20:00.497Z,19.42
2022-10-31T08:21:13.558Z,18.90
2022-10-31T08:22:16.271Z,17.95
2022-10-31T08:23:21.640Z,18.88
2022-10-31T08:24:24.652Z,19.55
2022-10-31T08:25:32.310Z,17.67
2022-10-31T08:26:40.088Z,17.42
2022-10-31T08:27:50.433Z,18.50
2022-10-31T08:28:55.912Z,17.60
2022-10-31T08:30:01.951Z,16.95
2022-10-31T08:31:06.976Z,17.95
2022-10-31T08:32:16.858Z,16.20
2022-10-31T08:33:39.127Z,16.27
2022-10-31T08:35:00.563Z,16.20
2022-10-31T08:36:22.975Z,16.65
2022-10-31T08:37:46.958Z,16.60
2022-10-31T08:38:51.121Z,16.67
2022-10-31T08:39:54.078Z,15.68
2022-10-31T08:40:58.780Z,16.50
2022-10-31T08:42:02.608Z,15.70
2022-10-31T08:43:08.116Z,15.07
2022-10-31T08:44:12.268Z,15.20
2022-10-31T08:45:15.296Z,16.23
2022-10-31T08:46:19.710Z,15.18
2022-10-31T08:47:25.044Z,14.70
2022-10-31T08:48:29.025Z,15.13
2022-10-31T08:49:33.769Z,14.63
2022-10-31T08:50:38.639Z,14.85
2022-10-31T08:51:41.401Z,14.85
2022-10-31T08:53:04.094Z,13.60
2022-10-31T08:54:10.190Z,13.88
2022-10-31T08:55:32.330Z,13.57
2022-10-31T08:56:39.877Z,12.80
2022-10-31T08:58:00.663Z,13.75
2022-10-31T08:59:13.411Z,13.25
2022-10-31T09:00:46.490Z,13.15
2022-10-31T09:01:53.074Z,13.27
2022-10-31T09:03:02.097Z,12.95
2022-10-31T09:04:08.134Z,11.85
2022-10-31T09:05:12.543Z,12.90
2022-10-31T09:06:16.483Z,13.75
2022-10-31T09:07:20.986Z,13.57
2022-10-31T09:08:25.819Z,13.80
2022-10-31T09:09:28.751Z,14.23
2022-10-31T09:10:33.977Z,13.85
2022-10-31T09:11:40.349Z,13.70
2022-10-31T09:12:59.764Z,13.70
2022-10-31T09:14:32.815Z,13.30
2022-10-31T09:16:01.012Z,12.40
2022-10-31T09:17:04.529Z,11.82
2022-10-31T09:18:29.121Z,11.95
2022-10-31T09:19:34.541Z,11.95
2022-10-31T09:20:39.501Z,13.68
2022-10-31T09:21:42.884Z,12.45
2022-10-31T09:22:46.838Z,11.18
2022-10-31T09:23:50.851Z,12.57
2022-10-31T09:24:54.099Z,14.80
2022-10-31T09:25:58.509Z,12.00
2022-10-31T09:27:09.688Z,11.55
2022-10-31T09:28:19.230Z,11.65
2022-10-31T09:29:23.828Z,11.15
2022-10-31T09:30:34.239Z,12.15
2022-10-31T09:31:44.910Z,12.40
2022-10-31T09:33:20.316Z,14.35
2022-10-31T09:34:43.081Z,12.27
2022-10-31T09:35:54.149Z,10.95
2022-10-31T09:36:59.468Z,11.55
2022-10-31T09:38:04.830Z,11.70
2022-10-31T09:39:10.237Z,12.18
2022-10-31T09:40:15.420Z,13.00
2022-10-31T09:41:26.664Z,12.77
2022-10-31T09:42:51.949Z,11.68
2022-10-31T09:44:04.208Z,11.70
2022-10-31T09:45:13.332Z,13.75
2022-10-31T09:46:23.257Z,12.70
2022-10-31T09:47:37.959Z,12.05
2022-10-31T09:49:43.829Z,12.60
2022-10-31T09:50:51.360Z,11.55
2022-10-31T09:52:20.059Z,20.42
2022-10-31T09:53:27.656Z,13.00
2022-10-31T09:54:36.635Z,12.23
2022-10-31T09:55:42.228Z,11.88
2022-10-31T09:56:46.567Z,13.10
2022-10-31T09:57:49.592Z,13.27
2022-10-31T09:58:56.510Z,15.70
2022-10-31T10:00:01.138Z,13.13
2022-10-31T10:01:05.971Z,12.10
2022-10-31T10:02:16.765Z,12.02
2022-10-31T10:03:34.320Z,13.70
2022-10-31T10:04:52.953Z,12.65
2022-10-31T10:06:03.940Z,12.85
2022-10-31T10:07:37.149Z,12.48
2022-10-31T10:08:59.466Z,11.52
2022-10-31T10:10:29.640Z,12.63
2022-10-31T10:12:16.200Z,12.35
2022-10-31T10:13:39.548Z,11.57
2022-10-31T10:15:02.645Z,15.98
2022-10-31T10:16:19.700Z,12.20
2022-10-31T10:17:29.884Z,12.68
2022-10-31T10:18:41.757Z,12.77
2022-10-31T10:20:04.226Z,11.75
2022-10-31T10:21:19.420Z,11.38
2022-10-31T10:22:31.261Z,11.82
2022-10-31T10:23:45.834Z,16.00
2022-10-31T10:25:04.937Z,12.15
2022-10-31T10:26:17.850Z,12.55
2022-10-31T10:27:28.337Z,13.50
2022-10-31T10:28:39.408Z,11.35
2022-10-31T10:29:47.510Z,18.05
2022-10-31T10:30:53.577Z,20.30
2022-10-31T10:31:58.014Z,24.95
2022-10-31T10:33:06.443Z,12.30
2022-10-31T10:34:15.902Z,11.60
2022-10-31T10:35:26.990Z,11.75
2022-10-31T10:36:35.821Z,10.63
2022-10-31T10:37:41.098Z,11.18
2022-10-31T10:38:51.599Z,10.98
2022-10-31T10:39:57.350Z,14.35
2022-10-31T10:41:03.499Z,11.82
2022-10-31T10:42:29.819Z,10.60
2022-10-31T10:43:35.296Z,12.07
2022-10-31T10:44:57.604Z,16.88
2022-10-31T10:46:28.488Z,11.98
2022-10-31T10:47:42.786Z,12.00
2022-10-31T10:48:46.899Z,13.95
2022-10-31T10:49:52.992Z,9.50
2022-10-31T10:50:57.199Z,14.35
2022-10-31T10:52:19.432Z,9.82
2022-10-31T10:53:36.890Z,12.05
2022-10-31T10:55:01.509Z,12.40
2022-10-31T10:56:13.526Z,9.30
2022-10-31T10:57:25.727Z,8.65
2022-10-31T10:58:29.789Z,10.27
2022-10-31T10:59:33.858Z,11.70
2022-10-31T11:00:38.014Z,11.32
2022-10-31T11:01:43.297Z,10.32
2022-10-31T11:02:49.009Z,9.48
2022-10-31T11:03:52.200Z,9.70
2022-10-31T11:04:57.594Z,10.50
2022-10-31T11:06:03.070Z,8.43
2022-10-31T11:07:07.780Z,8.98
2022-10-31T11:08:11.784Z,7.90
2022-10-31T11:09:17.225Z,7.97
2022-10-31T11:10:21.291Z,8.85
2022-10-31T11:11:32.132Z,8.30
2022-10-31T11:12:35.442Z,8.70
2022-10-31T11:13:39.569Z,7.47
2022-10-31T11:14:49.844Z,7.45
2022-10-31T11:15:56.891Z,8.20
2022-10-31T11:17:10.942Z,8.38
2022-10-31T11:18:22.517Z,8.25
2022-10-31T11:19:28.789Z,9.57
2022-10-31T11:20:35.834Z,8.35
2022-10-31T11:21:40.297Z,8.40
2022-10-31T11:22:45.093Z,8.43
2022-10-31T11:23:49.567Z,8.23
2022-10-31T11:24:53.463Z,7.88
2022-10-31T11:25:58.333Z,8.55
2022-10-31T11:27:16.541Z,8.80
2022-10-31T11:28:19.432Z,8.65
2022-10-31T11:29:26.186Z,8.48
2022-10-31T11:30:29.398Z,8.00
2022-10-31T11:31:34.117Z,9.20
2022-10-31T11:32:39.153Z,15.82
2022-10-31T11:33:48.546Z,8.40
2022-10-31T11:34:55.128Z,8.98
2022-10-31T11:35:58.879Z,9.98
2022-10-31T11:37:12.418Z,8.82
2022-10-31T11:38:19.395Z,8.40
2022-10-31T11:39:25.197Z,12.47
2022-10-31T11:40:28.994Z,9.43
2022-10-31T11:41:35.658Z,8.82
2022-10-31T11:42:42.011Z,8.27
2022-10-31T11:43:49.144Z,8.73
2022-10-31T11:44:54.148Z,9.27
2022-10-31T11:45:58.517Z,9.02
2022-10-31T11:47:04.687Z,9.05
2022-10-31T11:48:19.019Z,8.07
2022-10-31T11:49:32.953Z,8.27
2022-10-31T11:50:38.639Z,7.80
2022-10-31T11:51:42.736Z,7.63
2022-10-31T11:52:47.109Z,8.07
2022-10-31T11:54:01.687Z,7.80
2022-10-31T11:55:18.894Z,11.88
2022-10-31T11:56:23.166Z,9.23
2022-10-31T11:57:29.406Z,8.88
2022-10-31T11:58:33.497Z,7.97
2022-10-31T11:59:37.320Z,9.43
2022-10-31T12:00:42.089Z,8.50
2022-10-31T12:01:50.185Z,7.57
2022-10-31T12:02:53.334Z,8.85
2022-10-31T12:04:05.738Z,7.80
2022-10-31T12:05:12.282Z,7.22
2022-10-31T12:06:20.227Z,8.00
2022-10-31T12:07:24.975Z,7.38
2022-10-31T12:08:33.030Z,7.50
2022-10-31T12:09:38.207Z,6.97
2022-10-31T12:10:48.557Z,7.47
2022-10-31T12:12:12.663Z,6.25
2022-10-31T12:13:29.648Z,7.72
2022-10-31T12:14:40.427Z,6.90
2022-10-31T12:15:48.058Z,6.80
2022-10-31T12:16:56.385Z,9.45
2022-10-31T12:18:25.333Z,5.50
2022-10-31T12:19:38.898Z,7.35
2022-10-31T12:20:50.860Z,7.70
2022-10-31T12:22:05.649Z,7.70
2022-10-31T12:23:17.683Z,10.13
2022-10-31T12:24:35.414Z,7.73
2022-10-31T12:25:46.612Z,10.23
2022-10-31T12:26:58.179Z,6.27
2022-10-31T12:28:24.219Z,8.13
2022-10-31T12:29:42.658Z,6.78
2022-10-31T12:30:57.547Z,7.23
2022-10-31T12:32:16.674Z,6.30
2022-10-31T12:33:35.329Z,7.57
2022-10-31T12:34:50.677Z,6.77
2022-10-31T12:36:02.511Z,7.23
2022-10-31T12:37:10.229Z,6.63
2022-10-31T12:38:26.939Z,7.37
2022-10-31T12:39:39.790Z,6.30
2022-10-31T12:40:57.557Z,7.50
2022-10-31T12:42:07.348Z,8.53
2022-10-31T12:43:23.273Z,6.70
2022-10-31T12:45:05.397Z,6.20
2022-10-31T12:46:12.648Z,6.13
2022-10-31T12:47:35.630Z,5.80
2022-10-31T12:49:05.166Z,5.60
2022-10-31T12:50:20.799Z,7.97
2022-10-31T12:51:34.248Z,5.83
2022-10-31T12:52:47.299Z,6.07
2022-10-31T12:54:03.616Z,5.93
2022-10-31T12:55:22.198Z,6.63
2022-10-31T12:56:34.019Z,6.50
2022-10-31T12:57:41.952Z,7.83
2022-10-31T12:58:48.297Z,6.23
2022-10-31T12:59:55.939Z,6.87
2022-10-31T13:01:15.848Z,8.10
2022-10-31T13:02:22.457Z,10.07
2022-10-31T13:03:34.641Z,8.87
2022-10-31T13:04:45.116Z,6.13
2022-10-31T13:05:52.147Z,6.20
2022-10-31T13:06:58.457Z,7.57
2022-10-31T13:08:06.008Z,6.73
2022-10-31T13:09:12.078Z,6.97
2022-10-31T13:10:22.470Z,6.87
2022-10-31T13:11:30.330Z,6.50
2022-10-31T13:12:37.460Z,7.67
2022-10-31T13:13:44.198Z,6.27
2022-10-31T13:14:50.857Z,6.57
2022-10-31T13:15:57.577Z,7.07
2022-10-31T13:17:01.375Z,7.00
2022-10-31T13:18:08.669Z,7.00
2022-10-31T13:19:15.162Z,6.70
2022-10-31T13:20:24.436Z,6.77
2022-10-31T13:21:31.767Z,8.50
2022-10-31T13:22:36.985Z,7.07
2022-10-31T13:23:50.928Z,6.37
2022-10-31T13:24:59.506Z,6.90
2022-10-31T13:26:11.327Z,6.27
2022-10-31T13:27:18.027Z,6.57
2022-10-31T13:28:28.720Z,6.80
2022-10-31T13:29:35.608Z,7.40
2022-10-31T13:30:39.571Z,6.20
2022-10-31T13:31:44.009Z,7.33
2022-10-31T13:32:49.448Z,6.73
2022-10-31T13:33:57.116Z,6.53
2022-10-31T13:35:00.792Z,6.80
2022-10-31T13:36:15.540Z,6.93
2022-10-31T13:37:26.129Z,6.80
2022-10-31T13:38:36.098Z,7.07
2022-10-31T13:39:49.439Z,6.23
2022-10-31T13:40:57.761Z,11.07
2022-10-31T13:42:05.369Z,7.77
2022-10-31T13:43:16.542Z,6.83
2022-10-31T13:44:20.969Z,7.03
2022-10-31T13:45:27.158Z,6.97
2022-10-31T13:46:37.882Z,6.73
2022-10-31T13:47:43.747Z,7.60
2022-10-31T13:48:47.629Z,9.60
2022-10-31T13:49:50.361Z,7.30
2022-10-31T13:51:03.462Z,6.70
2022-10-31T13:52:16.555Z,6.53
2022-10-31T13:53:23.257Z,6.17
2022-10-31T13:54:34.327Z,6.23
2022-10-31T13:55:39.789Z,6.90
2022-10-31T13:56:43.782Z,6.70
2022-10-31T13:57:49.248Z,6.97
2022-10-31T13:59:05.229Z,6.33
2022-10-31T14:00:28.990Z,6.57
2022-10-31T14:01:36.694Z,6.50
2022-10-31T14:02:48.488Z,7.23
2022-10-31T14:04:19.318Z,12.10
2022-10-31T14:05:28.289Z,42.03
2022-10-31T14:06:44.933Z,47.93
2022-10-31T14:07:49.224Z,23.00
2022-10-31T14:08:53.162Z,44.20
2022-10-31T14:10:01.376Z,54.93
2022-10-31T14:11:05.425Z,26.43
2022-10-31T14:12:12.949Z,33.30
2022-10-31T14:13:21.510Z,32.27
2022-10-31T14:14:29.249Z,44.20
2022-10-31T14:15:34.068Z,230.97
2022-10-31T14:16:39.678Z,199.03
2022-10-31T14:17:49.579Z,125.07
2022-10-31T14:19:00.440Z,177.90
2022-10-31T14:20:24.580Z,57.00
2022-10-31T14:21:30.977Z,83.90
2022-10-31T14:22:43.074Z,26.17
2022-10-31T14:23:49.515Z,47.07
2022-10-31T14:24:55.090Z,46.23
2022-10-31T14:26:10.189Z,53.10
2022-10-31T14:27:37.009Z,61.43
2022-10-31T14:28:42.192Z,80.35
2022-10-31T14:29:50.194Z,78.57
2022-10-31T14:30:55.861Z,121.43
2022-10-31T14:32:12.123Z,82.23
2022-10-31T14:33:19.632Z,147.82
2022-10-31T14:34:26.669Z,123.78
2022-10-31T14:35:46.049Z,121.63
2022-10-31T14:37:12.303Z,92.43
2022-10-31T14:38:39.787Z,66.93
2022-10-31T14:39:52.389Z,48.85
2022-10-31T14:41:21.759Z,61.15
2022-10-31T14:42:36.779Z,68.47
2022-10-31T14:44:07.651Z,50.20
2022-10-31T14:45:20.707Z,44.13
2022-10-31T14:46:38.380Z,39.63
2022-10-31T14:47:49.709Z,37.40
2022-10-31T14:49:02.749Z,40.83
2022-10-31T14:50:23.150Z,17.35
2022-10-31T14:51:29.384Z,23.95
2022-10-31T14:52:32.510Z,27.48
2022-10-31T14:53:38.319Z,20.67
2022-10-31T14:54:42.859Z,20.23
2022-10-31T14:55:50.319Z,19.65
2022-10-31T14:56:55.381Z,14.20
2022-10-31T14:58:02.053Z,14.43
2022-10-31T14:59:09.221Z,13.50
2022-10-31T15:00:18.929Z,12.85
2022-10-31T15:01:26.589Z,12.93
2022-10-31T15:02:33.720Z,12.27
2022-10-31T15:03:44.443Z,12.30